createdAt,value
2019-06-01T00:05:38.456Z,100.00
2019-06-01T00:16:11.705Z,100.00
2019-06-01T00:26:45.889Z,100.00
2019-06-01T00:37:19.012Z,100.00
2019-06-01T00:47:53.045Z,100.00
2019-06-01T00:58:26.105Z,100.00
2019-06-01T01:08:59.758Z,100.00
2019-06-01T01:19:33.165Z,100.00
2019-06-01T01:30:06.748Z,100.00
2019-06-01T01:40:40.246Z,100.00
2019-06-01T01:51:12.737Z,100.00
2019-06-01T02:01:45.563Z,100.00
2019-06-01T02:12:19.058Z,100.00
2019-06-01T02:22:53.077Z,100.00
2019-06-01T02:33:26.622Z,100.00
2019-06-01T02:44:01.632Z,100.00
2019-06-01T02:54:35.171Z,100.00
2019-06-01T03:05:07.797Z,100.00
2019-06-01T03:15:43.504Z,100.00
2019-06-01T03:26:17.335Z,100.00
2019-06-01T03:36:52.057Z,100.00
2019-06-01T03:47:25.600Z,100.00
2019-06-01T03:57:58.996Z,100.00
2019-06-01T04:08:31.884Z,100.00
2019-06-01T04:19:05.906Z,100.00
2019-06-01T04:29:39.187Z,100.00
2019-06-01T04:40:12.038Z,100.00
2019-06-01T04:50:45.677Z,89.50
2019-06-01T05:01:19.182Z,89.08
2019-06-01T05:11:52.975Z,86.36
2019-06-01T05:22:26.477Z,84.90
2019-06-01T05:32:59.914Z,84.09
2019-06-01T05:43:33.631Z,88.09
2019-06-01T05:54:07.195Z,86.74
2019-06-01T06:04:40.909Z,83.73
2019-06-01T06:15:13.848Z,81.43
2019-06-01T06:25:47.379Z,77.66
2019-06-01T06:36:21.786Z,69.70
2019-06-01T06:46:54.489Z,56.44
2019-06-01T06:57:28.134Z,57.27
2019-06-01T07:08:01.652Z,55.26
2019-06-01T07:18:35.249Z,58.29
2019-06-01T07:29:08.803Z,59.91
2019-06-01T07:39:42.296Z,58.03
2019-06-01T07:50:16.013Z,60.73
2019-06-01T08:00:49.725Z,63.73
2019-06-01T08:11:25.400Z,61.94
2019-06-01T08:21:58.716Z,55.41
2019-06-01T08:32:32.785Z,58.15
2019-06-01T08:43:06.330Z,57.40
2019-06-01T08:53:39.897Z,58.75
2019-06-01T09:04:13.724Z,56.97
2019-06-01T09:14:46.611Z,61.95
2019-06-01T09:25:20.551Z,64.66
2019-06-01T09:35:56.379Z,53.86
2019-06-01T09:46:28.977Z,57.35
2019-06-01T09:57:01.820Z,53.60
2019-06-01T10:07:36.900Z,52.14
2019-06-01T10:18:09.960Z,55.99
2019-06-01T10:28:43.580Z,56.12
2019-06-01T10:39:19.638Z,54.86
2019-06-01T10:49:53.385Z,51.57
2019-06-01T11:00:39.708Z,42.56
2019-06-01T11:11:04.384Z,43.21
2019-06-01T11:21:39.479Z,42.83
2019-06-01T11:32:12.918Z,41.37
2019-06-01T11:42:46.695Z,40.71
2019-06-01T11:53:20.255Z,44.42
2019-06-01T12:03:53.720Z,53.90
2019-06-01T12:14:27.060Z,51.01
2019-06-01T12:25:00.577Z,55.69
2019-06-01T12:35:34.074Z,52.92
2019-06-01T12:46:07.990Z,52.71
2019-06-01T12:56:41.034Z,53.96
2019-06-01T13:07:13.872Z,52.92
2019-06-01T13:17:47.548Z,51.76
2019-06-01T13:28:35.052Z,51.07
2019-06-01T13:38:56.878Z,50.50
2019-06-01T13:49:30.545Z,52.07
2019-06-01T14:00:03.888Z,50.33
2019-06-01T14:10:37.578Z,55.60
2019-06-01T14:21:11.006Z,56.93
2019-06-01T14:31:43.867Z,60.00
2019-06-01T14:42:16.541Z,60.98
2019-06-01T14:52:49.607Z,65.07
2019-06-01T15:03:23.298Z,66.78
2019-06-01T15:13:56.798Z,66.59
2019-06-01T15:24:30.584Z,65.04
2019-06-01T15:35:03.790Z,64.99
2019-06-01T15:45:41.094Z,64.47
2019-06-01T15:56:13.096Z,66.44
2019-06-01T16:06:46.221Z,68.26
2019-06-01T16:17:19.899Z,64.85
2019-06-01T16:27:54.561Z,63.54
2019-06-01T16:38:28.107Z,63.53
2019-06-01T16:49:01.787Z,65.53
2019-06-01T16:59:35.500Z,67.93
2019-06-01T17:10:24.619Z,68.64
2019-06-01T17:20:53.302Z,70.03
2019-06-01T17:31:26.890Z,70.71
2019-06-01T17:42:00.341Z,71.03
2019-06-01T17:52:34.180Z,73.28
2019-06-01T18:03:08.067Z,77.35
2019-06-01T18:13:41.418Z,78.99
2019-06-01T18:24:14.824Z,82.54
2019-06-01T18:34:47.583Z,85.28
2019-06-01T18:45:21.442Z,87.20
2019-06-01T18:55:55.004Z,92.44
2019-06-01T19:06:28.733Z,94.17
2019-06-01T19:17:01.395Z,100.00
2019-06-01T19:27:35.019Z,100.00
2019-06-01T19:38:11.207Z,100.00
2019-06-01T19:48:44.331Z,100.00
2019-06-01T19:59:18.042Z,100.00
2019-06-01T20:09:51.271Z,100.00
2019-06-01T20:20:24.037Z,100.00
2019-06-01T20:30:56.877Z,100.00
2019-06-01T20:41:29.570Z,100.00
2019-06-01T20:52:02.945Z,100.00
2019-06-01T21:02:36.447Z,100.00
2019-06-01T21:13:10.047Z,100.00
2019-06-01T21:23:42.878Z,100.00
2019-06-01T21:34:17.115Z,100.00
2019-06-01T21:44:50.215Z,100.00
2019-06-01T21:55:24.471Z,100.00
2019-06-01T22:05:58.244Z,100.00
2019-06-01T22:16:32.106Z,100.00
2019-06-01T22:27:04.924Z,100.00
2019-06-01T22:37:38.561Z,100.00
2019-06-01T22:48:11.224Z,100.00
2019-06-01T22:58:43.924Z,100.00
2019-06-01T23:09:17.575Z,100.00
2019-06-01T23:19:51.065Z,100.00
2019-06-01T23:30:24.705Z,100.00
2019-06-01T23:40:58.222Z,100.00
2019-06-01T23:51:32.019Z,100.00
